Time;durP1;ratioP1;P1;durP2;ratioP2;P2;SDS_P1;SDS_P2;PMS_P1;PMS_P2;Temp;Humidity;BMP_temperature;BMP_pressure;BME280_temperature;BME280_humidity;BME280_pressure;Samples;Min_cycle;Max_cycle;Signal;HPM_P1;HPM_P2
2022/09/19 09:45:44;;;;;;;11.48;1.35;;;17.40;99.90;;;;;;4247267;27;20523;-92
2022/09/19 09:48:24;;;;;;;12.73;2.63;;;17.20;99.90;;;;;;4213105;28;20196;-92
2022/09/19 09:50:37;;;;;;;10.75;1.90;;;17.30;99.90;;;;;;4195881;28;20174;-92
2022/09/19 09:52:46;;;;;;;14.60;2.90;;;17.20;99.90;;;;;;4195691;28;20539;-93
2022/09/19 09:57:43;;;;;;;11.63;2.10;;;17.70;99.90;;;;;;4212280;28;20178;-91
2022/09/19 10:05:16;;;;;;;13.45;1.92;;;18.70;99.90;;;;;;4212000;28;20228;-93
2022/09/19 10:07:26;;;;;;;6.78;1.10;;;19.00;99.90;;;;;;4195219;28;20166;-93
2022/09/19 10:09:34;;;;;;;9.55;1.52;;;19.20;99.90;;;;;;4211793;28;20194;-93
2022/09/19 10:11:56;;;;;;;9.07;1.20;;;19.40;99.90;;;;;;4195178;28;20190;-94
2022/09/19 10:14:01;;;;;;;13.63;1.48;;;19.30;99.90;;;;;;4195106;28;20229;-93
2022/09/19 10:16:05;;;;;;;11.38;1.55;;;19.20;99.90;;;;;;4211797;28;20176;-92
2022/09/19 10:18:13;;;;;;;10.25;2.05;;;19.20;99.90;;;;;;4195073;28;20170;-93
2022/09/19 10:20:38;;;;;;;12.45;1.33;;;19.30;99.90;;;;;;4211574;28;20239;-91
2022/09/19 10:22:39;;;;;;;14.60;1.23;;;19.40;99.90;;;;;;4195252;28;20267;-93
2022/09/19 10:24:50;;;;;;;8.50;1.17;;;19.30;99.90;;;;;;4195352;28;20194;-93
2022/09/19 10:27:00;;;;;;;13.60;1.92;;;19.60;99.90;;;;;;4195394;28;20167;-92
2022/09/19 10:29:02;;;;;;;14.10;2.13;;;19.90;99.90;;;;;;4194932;28;20206;-93
2022/09/19 10:31:38;;;;;;;6.47;1.27;;;19.80;99.90;;;;;;4212004;28;20228;-93
2022/09/19 10:33:51;;;;;;;11.23;1.33;;;19.40;99.90;;;;;;4196206;28;20209;-92
2022/09/19 10:36:04;;;;;;;8.65;1.50;;;19.10;99.90;;;;;;4195591;28;20166;-92
2022/09/19 10:38:13;;;;;;;15.90;1.90;;;18.50;99.90;;;;;;4194630;28;20166;-91
2022/09/19 10:40:16;;;;;;;9.35;1.38;;;18.00;99.90;;;;;;4194562;28;20166;-90
2022/09/19 10:42:30;;;;;;;23.92;2.90;;;17.50;99.90;;;;;;4195070;28;20261;-91
2022/09/19 10:44:30;;;;;;;11.43;1.90;;;16.80;99.90;;;;;;4194666;28;20589;-90
2022/09/19 10:46:37;;;;;;;26.83;2.53;;;16.60;99.90;;;;;;4194263;28;20262;-92
2022/09/19 10:48:57;;;;;;;9.10;1.50;;;16.70;99.90;;;;;;4211577;28;20290;-92
2022/09/19 10:51:08;;;;;;;11.57;2.10;;;16.90;99.90;;;;;;4194625;28;20183;-90
2022/09/19 10:53:22;;;;;;;14.18;1.75;;;17.00;99.90;;;;;;4194076;28;20178;-91
2022/09/19 10:55:23;;;;;;;6.80;1.70;;;17.00;99.90;;;;;;4207828;28;20236;-91
2022/09/19 10:57:45;;;;;;;7.40;1.33;;;17.00;99.90;;;;;;4200204;28;20170;-92
2022/09/19 10:59:52;;;;;;;13.10;2.47;;;17.10;99.90;;;;;;4183947;28;20246;-90
2022/09/19 11:02:09;;;;;;;10.50;1.63;;;17.20;99.90;;;;;;4200188;28;20178;-91
2022/09/19 11:04:22;;;;;;;8.18;1.35;;;17.40;99.90;;;;;;4183266;28;20603;-91
2022/09/19 11:06:23;;;;;;;9.32;1.50;;;17.50;99.90;;;;;;4183265;28;20179;-91
2022/09/19 11:08:28;;;;;;;4.95;1.10;;;17.30;99.90;;;;;;4183438;28;20787;-91
2022/09/19 11:10:37;;;;;;;10.18;1.85;;;17.50;99.90;;;;;;4183696;28;20261;-91
2022/09/19 11:12:42;;;;;;;11.93;1.73;;;17.70;99.90;;;;;;4183527;28;20226;-91
2022/09/19 11:14:48;;;;;;;14.30;1.70;;;17.70;99.90;;;;;;4183978;28;20211;-92
2022/09/19 11:17:15;;;;;;;7.80;1.63;;;17.40;99.90;;;;;;4184065;28;20195;-91
2022/09/19 11:20:00;;;;;;;6.82;1.40;;;17.40;99.90;;;;;;4183375;28;20191;-92
2022/09/19 11:22:16;;;;;;;20.33;8.02;;;17.70;99.90;;;;;;4183222;28;20229;-91
2022/09/19 11:24:43;;;;;;;7.68;1.58;;;17.90;99.90;;;;;;4199645;28;20191;-92
2022/09/19 11:27:01;;;;;;;5.97;0.90;;;18.10;99.90;;;;;;4183274;28;20171;-91
2022/09/19 11:29:33;;;;;;;9.50;2.05;;;18.50;99.90;;;;;;4199458;28;20195;-93
2022/09/19 11:31:49;;;;;;;9.93;6.10;;;18.80;99.90;;;;;;4199612;28;20191;-91
2022/09/19 11:34:04;;;;;;;13.48;7.55;;;19.00;99.90;;;;;;4199458;28;20771;-92
2022/09/19 11:36:20;;;;;;;8.07;2.08;;;18.90;99.90;;;;;;4183055;28;20190;-92
2022/09/19 11:38:32;;;;;;;8.23;1.45;;;19.00;99.90;;;;;;4182718;28;20194;-93
2022/09/19 11:40:41;;;;;;;7.00;1.23;;;19.30;99.90;;;;;;4199298;28;20175;-94
2022/09/19 11:43:15;;;;;;;10.98;1.67;;;19.00;99.90;;;;;;4182673;28;20182;-92
2022/09/19 11:45:28;;;;;;;6.95;3.03;;;19.10;99.90;;;;;;4182834;28;20195;-92
2022/09/19 11:47:44;;;;;;;12.77;1.88;;;18.80;99.90;;;;;;4183527;28;20171;-93
2022/09/19 11:50:08;;;;;;;10.48;1.42;;;18.80;99.90;;;;;;4182749;28;20191;-93
2022/09/19 11:52:37;;;;;;;6.90;1.17;;;18.90;99.90;;;;;;4182905;28;20194;-92
2022/09/19 11:54:53;;;;;;;6.53;1.60;;;19.20;99.90;;;;;;4182405;28;20318;-93
2022/09/19 11:57:38;;;;;;;7.60;1.35;;;19.30;99.90;;;;;;4182560;28;20163;-93
2022/09/19 12:00:00;;;;;;;7.18;1.45;;;19.60;99.90;;;;;;4199128;28;20273;-94
2022/09/19 12:02:33;;;;;;;6.80;1.00;;;19.60;99.90;;;;;;4182466;28;20180;-93
2022/09/19 12:04:38;;;;;;;6.78;1.27;;;19.40;99.90;;;;;;4182762;28;20701;-93
2022/09/19 12:07:24;;;;;;;4.97;1.48;;;19.20;99.90;;;;;;4182459;28;20186;-91
2022/09/19 12:09:34;;;;;;;7.93;1.42;;;19.20;99.90;;;;;;4155996;28;20288;-92
2022/09/19 12:11:44;;;;;;;5.88;1.20;;;19.30;99.90;;;;;;4182564;28;20167;-92
2022/09/19 12:13:54;;;;;;;6.70;1.08;;;19.20;99.90;;;;;;4182561;28;20246;-92
2022/09/19 12:16:03;;;;;;;8.82;1.05;;;19.10;99.90;;;;;;4182256;28;20257;-93
2022/09/19 12:18:12;;;;;;;9.43;1.20;;;19.30;99.90;;;;;;4182008;28;20171;-93
2022/09/19 12:20:18;;;;;;;5.90;0.82;;;19.60;99.90;;;;;;4198842;28;20175;-93
2022/09/19 12:22:23;;;;;;;9.82;1.48;;;19.80;99.90;;;;;;4182246;28;20163;-92
2022/09/19 12:27:11;;;;;;;10.05;1.27;;;20.30;99.90;;;;;;4198752;28;20206;-94
2022/09/19 12:29:34;;;;;;;4.03;0.90;;;20.20;99.90;;;;;;4182334;28;20249;-92
2022/09/19 12:31:39;;;;;;;9.15;1.08;;;20.20;99.90;;;;;;4182035;28;20167;-93
2022/09/19 12:33:58;;;;;;;7.45;1.10;;;19.80;99.90;;;;;;4198338;28;20175;-89
2022/09/19 12:36:06;;;;;;;5.80;1.58;;;19.40;99.90;;;;;;4195879;28;20619;-92
2022/09/19 12:38:30;;;;;;;8.60;1.52;;;19.20;99.90;;;;;;4182521;28;20175;-92
2022/09/19 12:40:45;;;;;;;8.32;2.08;;;19.60;99.90;;;;;;4182313;28;20180;-92
2022/09/19 12:42:50;;;;;;;9.40;1.65;;;19.60;99.90;;;;;;4182115;28;20213;-91
2022/09/19 12:45:19;;;;;;;6.18;1.08;;;19.60;99.90;;;;;;4182084;28;20179;-93
2022/09/19 12:48:01;;;;;;;5.70;1.05;;;19.40;99.90;;;;;;4177485;28;20186;-93
2022/09/19 12:50:34;;;;;;;9.52;1.15;;;19.50;99.90;;;;;;4167113;28;20194;-92
2022/09/19 12:52:41;;;;;;;8.30;0.90;;;19.50;99.90;;;;;;4196033;28;20186;-91
2022/09/19 12:55:07;;;;;;;4.28;0.88;;;19.80;99.90;;;;;;4181766;28;20737;-91
2022/09/19 12:57:27;;;;;;;7.57;0.90;;;19.60;99.90;;;;;;4181947;28;20184;-92
2022/09/19 12:59:29;;;;;;;6.60;1.00;;;19.20;99.90;;;;;;4181658;28;20187;-91
2022/09/19 13:01:37;;;;;;;7.88;0.93;;;19.40;99.90;;;;;;4181549;28;20225;-93
2022/09/19 13:03:44;;;;;;;10.23;0.90;;;19.40;99.90;;;;;;4181480;28;20179;-93
2022/09/19 13:05:51;;;;;;;4.82;0.73;;;19.40;99.90;;;;;;4181389;28;20181;-93
2022/09/19 13:07:53;;;;;;;8.63;1.13;;;19.00;99.90;;;;;;4181290;28;20626;-91
2022/09/19 13:10:05;;;;;;;9.23;1.40;;;19.00;99.90;;;;;;4181136;28;20203;-90
2022/09/19 13:12:15;;;;;;;7.90;0.82;;;18.90;99.90;;;;;;4181312;28;20167;-91
2022/09/19 13:14:30;;;;;;;7.80;0.80;;;18.90;99.90;;;;;;4181336;28;20247;-91
2022/09/19 13:23:29;;;;;;;8.02;0.98;;;18.90;99.90;;;;;;4181380;28;20536;-91
2022/09/19 13:23:56;;;;;;;6.80;0.90;;;18.70;99.90;;;;;;4197707;28;20734;-91
2022/09/19 13:25:57;;;;;;;8.23;0.90;;;19.00;99.90;;;;;;4181034;28;20171;-92
2022/09/19 13:28:19;;;;;;;9.10;0.95;;;19.20;99.90;;;;;;4197824;28;20186;-92
2022/09/19 13:30:50;;;;;;;6.10;1.08;;;18.90;99.90;;;;;;4181374;28;20176;-93
2022/09/19 13:32:57;;;;;;;8.45;0.70;;;19.10;99.90;;;;;;4164290;28;20176;-93
2022/09/19 13:35:11;;;;;;;5.95;0.80;;;19.30;99.90;;;;;;4181370;28;20216;-93
2022/09/19 13:37:27;;;;;;;7.22;1.00;;;19.50;99.90;;;;;;4181377;28;20198;-91
2022/09/19 13:39:53;;;;;;;8.15;0.90;;;19.60;99.90;;;;;;4181123;28;20219;-90
2022/09/19 13:41:56;;;;;;;13.15;0.90;;;19.50;99.90;;;;;;4172009;28;20187;-92
2022/09/19 13:44:19;;;;;;;10.90;0.88;;;19.80;99.90;;;;;;4181304;28;20187;-91
2022/09/19 13:46:31;;;;;;;5.05;0.80;;;19.80;99.90;;;;;;4181392;28;20178;-92
2022/09/19 13:48:45;;;;;;;4.50;0.73;;;19.60;99.90;;;;;;4181143;28;20252;-92
2022/09/19 13:50:58;;;;;;;11.02;1.10;;;19.60;99.90;;;;;;4197516;28;20203;-91
2022/09/19 13:53:04;;;;;;;9.93;1.13;;;19.90;99.90;;;;;;4181025;28;20167;-93
2022/09/19 13:55:27;;;;;;;7.38;1.13;;;19.80;99.90;;;;;;4180691;28;20268;-92
2022/09/19 13:57:31;;;;;;;7.13;0.90;;;19.50;99.90;;;;;;4178120;28;20254;-93
2022/09/19 13:59:44;;;;;;;6.70;1.23;;;19.00;99.90;;;;;;4181217;28;20701;-93
2022/09/19 14:02:18;;;;;;;6.80;1.13;;;18.70;99.90;;;;;;4181486;28;20266;-90
2022/09/19 14:06:38;;;;;;;6.47;0.95;;;18.20;99.90;;;;;;4197411;28;20186;-94
2022/09/19 14:08:38;;;;;;;6.15;0.90;;;18.00;99.90;;;;;;4180724;28;20251;-90
2022/09/19 14:10:48;;;;;;;8.68;0.95;;;17.70;99.90;;;;;;4181045;28;20267;-93
2022/09/19 14:13:16;;;;;;;6.95;1.40;;;17.80;99.90;;;;;;4181025;28;20210;-88
2022/09/19 14:15:40;;;;;;;6.57;1.30;;;18.00;99.90;;;;;;4189465;28;20211;-92
2022/09/19 14:18:10;;;;;;;7.28;0.90;;;17.90;99.90;;;;;;4181017;28;20678;-90
2022/09/19 14:20:47;;;;;;;7.82;0.95;;;17.80;99.90;;;;;;4180894;28;20175;-94
2022/09/19 14:22:48;;;;;;;12.60;1.20;;;17.60;99.90;;;;;;4181003;28;20734;-93
2022/09/19 14:24:50;;;;;;;7.15;1.00;;;17.40;99.90;;;;;;4180877;28;20190;-89
2022/09/19 14:27:01;;;;;;;8.93;1.10;;;17.40;99.90;;;;;;4180876;28;20262;-93
2022/09/19 14:29:13;;;;;;;8.32;0.98;;;17.40;99.90;;;;;;4180861;28;20206;-93
2022/09/19 14:31:36;;;;;;;6.70;1.17;;;17.40;99.90;;;;;;4182313;28;20246;-90
2022/09/19 14:33:42;;;;;;;11.63;1.00;;;17.30;99.90;;;;;;4183900;28;20167;-89
2022/09/19 14:35:47;;;;;;;6.38;0.90;;;17.10;99.90;;;;;;4183903;28;20191;-91
2022/09/19 14:38:26;;;;;;;6.75;1.67;;;17.30;99.90;;;;;;4183984;28;20175;-93
2022/09/19 14:40:55;;;;;;;8.88;1.10;;;17.40;99.90;;;;;;4183769;28;20175;-90
2022/09/19 14:43:23;;;;;;;11.18;1.17;;;17.30;99.90;;;;;;4183774;28;20210;-93
2022/09/19 14:45:56;;;;;;;11.00;1.20;;;17.40;99.90;;;;;;4183929;28;20187;-93
2022/09/19 14:48:06;;;;;;;7.63;1.00;;;17.60;99.90;;;;;;4200548;28;20166;-93
2022/09/19 14:50:35;;;;;;;10.70;1.23;;;18.00;99.90;;;;;;4184487;28;20274;-93
2022/09/19 14:52:40;;;;;;;5.47;0.98;;;18.10;99.90;;;;;;4183915;28;20172;-93
2022/09/19 14:55:02;;;;;;;12.10;0.88;;;18.50;99.90;;;;;;4183713;28;20215;-92
2022/09/19 14:57:13;;;;;;;7.60;0.98;;;18.50;99.90;;;;;;4183671;28;20179;-95
2022/09/19 14:59:22;;;;;;;16.30;2.70;;;18.50;99.90;;;;;;4200148;28;20198;-89
2022/09/19 15:01:27;;;;;;;10.15;3.38;;;18.70;99.90;;;;;;4183474;28;20206;-91
2022/09/19 15:03:29;;;;;;;4.30;0.63;;;18.90;99.90;;;;;;4183615;28;20178;-93
2022/09/19 15:05:37;;;;;;;7.50;1.02;;;18.80;99.90;;;;;;4183602;28;20667;-91
2022/09/19 15:07:38;;;;;;;4.95;0.73;;;18.60;99.90;;;;;;4183494;28;20202;-90
2022/09/19 15:09:39;;;;;;;2.88;0.40;;;18.60;99.90;;;;;;4199636;28;20297;-92
2022/09/19 15:11:51;;;;;;;5.72;0.77;;;18.60;99.90;;;;;;4200010;28;20167;-93
2022/09/19 15:13:56;;;;;;;5.60;1.08;;;18.80;99.90;;;;;;4199968;28;20228;-92
2022/09/19 15:16:03;;;;;;;7.15;1.00;;;18.70;99.90;;;;;;4200007;28;20167;-93
2022/09/19 15:18:21;;;;;;;10.98;0.80;;;18.80;99.90;;;;;;4183080;28;20682;-93
2022/09/19 15:20:22;;;;;;;8.30;0.90;;;18.50;99.90;;;;;;4183303;28;20180;-91
2022/09/19 15:22:34;;;;;;;13.27;1.40;;;18.60;99.90;;;;;;4183291;28;20260;-91
2022/09/19 15:24:34;;;;;;;7.88;1.10;;;18.70;99.90;;;;;;4183167;28;20265;-93
2022/09/19 15:26:47;;;;;;;5.35;1.25;;;18.60;99.90;;;;;;4183232;28;20172;-92
2022/09/19 15:28:58;;;;;;;8.20;0.90;;;18.80;99.90;;;;;;4182841;28;20195;-91
2022/09/19 15:30:59;;;;;;;5.03;1.00;;;18.90;99.90;;;;;;4182909;28;20211;-91
2022/09/19 15:33:13;;;;;;;4.45;0.80;;;19.00;99.90;;;;;;4182910;28;20175;-93
2022/09/19 15:35:16;;;;;;;7.50;0.77;;;19.00;99.90;;;;;;4182918;28;20211;-91
2022/09/19 15:37:20;;;;;;;5.18;1.00;;;19.20;99.90;;;;;;4199645;28;20627;-95
2022/09/19 15:39:21;;;;;;;7.32;1.20;;;18.80;99.90;;;;;;4199200;28;20195;-91
2022/09/19 15:41:27;;;;;;;5.60;1.00;;;18.90;99.90;;;;;;4182626;28;20238;-93
2022/09/19 15:43:29;;;;;;;2.47;0.40;;;18.90;99.90;;;;;;4183199;28;20199;-91
2022/09/19 15:45:43;;;;;;;2.85;0.65;;;18.70;99.90;;;;;;4183075;28;20234;-92
2022/09/19 15:47:45;;;;;;;6.07;0.90;;;18.60;99.90;;;;;;4199601;28;20207;-91
2022/09/19 15:49:48;;;;;;;7.15;0.70;;;18.70;99.90;;;;;;4193859;28;20200;-91
2022/09/19 15:51:55;;;;;;;5.07;0.75;;;18.70;99.90;;;;;;4183176;28;20184;-91
2022/09/19 15:53:56;;;;;;;3.38;0.57;;;18.50;99.90;;;;;;4200037;28;20277;-93
2022/09/19 15:56:02;;;;;;;8.63;0.95;;;18.50;99.90;;;;;;4182993;28;20235;-93
2022/09/19 15:58:04;;;;;;;5.82;0.90;;;18.40;99.90;;;;;;4182832;28;20206;-90
2022/09/19 16:00:09;;;;;;;8.02;0.95;;;18.60;99.90;;;;;;4199286;28;20676;-92
2022/09/19 16:02:20;;;;;;;4.43;0.82;;;18.60;99.90;;;;;;4183255;28;20174;-92
2022/09/19 16:04:25;;;;;;;7.07;0.90;;;18.40;99.90;;;;;;4182556;28;20229;-91
2022/09/19 16:09:01;;;;;;;9.60;0.82;;;18.50;99.90;;;;;;4198711;28;20569;-92
2022/09/19 16:11:27;;;;;;;6.07;0.82;;;18.40;99.90;;;;;;4182626;28;20651;-93
2022/09/19 16:13:34;;;;;;;6.03;0.70;;;18.30;99.90;;;;;;4182392;28;20237;-93
2022/09/19 16:15:37;;;;;;;8.13;0.90;;;18.50;99.90;;;;;;4182190;28;20308;-94
2022/09/19 16:17:55;;;;;;;8.18;0.77;;;18.50;99.90;;;;;;4182446;28;20168;-90
2022/09/19 16:19:58;;;;;;;5.03;0.75;;;18.40;99.90;;;;;;4198727;28;20293;-92
2022/09/19 16:22:00;;;;;;;8.45;0.95;;;18.30;99.90;;;;;;4182082;28;20168;-93
2022/09/19 16:24:01;;;;;;;6.18;0.93;;;18.20;99.90;;;;;;4198761;28;20226;-92
2022/09/19 16:26:02;;;;;;;6.95;0.90;;;18.20;99.90;;;;;;4198861;28;20178;-92
2022/09/19 16:28:15;;;;;;;9.40;1.20;;;18.40;99.90;;;;;;4198778;28;20550;-91
2022/09/19 16:30:16;;;;;;;6.97;0.93;;;18.60;99.90;;;;;;4182402;28;20179;-91
2022/09/19 16:32:21;;;;;;;7.38;0.70;;;18.70;99.90;;;;;;4182395;28;20172;-92
2022/09/19 16:34:42;;;;;;;4.18;0.70;;;18.70;99.90;;;;;;4182199;28;20209;-90
2022/09/19 16:36:47;;;;;;;4.68;0.82;;;18.60;99.90;;;;;;4198658;28;20662;-92
2022/09/19 16:39:08;;;;;;;8.73;0.98;;;18.20;99.90;;;;;;4182067;28;20666;-89
2022/09/19 16:41:22;;;;;;;7.57;0.90;;;18.40;99.90;;;;;;4198530;28;20183;-92
2022/09/19 16:43:39;;;;;;;9.85;0.98;;;18.10;99.90;;;;;;4182121;28;20194;-93
2022/09/19 16:45:40;;;;;;;6.10;1.10;;;18.00;99.90;;;;;;4181763;28;20194;-92
2022/09/19 16:47:41;;;;;;;4.65;0.65;;;18.10;99.90;;;;;;4181745;28;20172;-92
2022/09/19 16:49:43;;;;;;;6.65;0.98;;;18.20;99.90;;;;;;4198407;28;20237;-92
2022/09/19 16:51:49;;;;;;;6.88;1.05;;;18.20;99.90;;;;;;4181978;28;20233;-92
2022/09/19 16:53:50;;;;;;;7.05;0.90;;;17.90;99.90;;;;;;4181185;28;20579;-92
2022/09/19 16:55:51;;;;;;;10.15;0.60;;;17.90;99.90;;;;;;4181849;28;20646;-91
2022/09/19 16:57:59;;;;;;;5.85;0.90;;;17.80;99.90;;;;;;4198252;28;20171;-93
2022/09/19 17:00:01;;;;;;;8.07;1.17;;;18.20;99.90;;;;;;4198240;28;20269;-93
2022/09/19 17:02:02;;;;;;;4.57;0.73;;;18.10;99.90;;;;;;4197932;28;20179;-92
2022/09/19 17:04:03;;;;;;;9.90;0.80;;;17.90;99.90;;;;;;4198148;28;20216;-92
2022/09/19 17:06:05;;;;;;;6.57;0.80;;;17.80;99.90;;;;;;4181447;28;20207;-94
2022/09/19 17:08:06;;;;;;;8.63;0.93;;;17.70;99.90;;;;;;4181517;28;20167;-92
2022/09/19 17:10:08;;;;;;;4.63;0.80;;;17.60;99.90;;;;;;4181288;28;20172;-92
2022/09/19 17:12:14;;;;;;;6.53;0.70;;;17.60;99.90;;;;;;4181279;28;20196;-91
2022/09/19 17:14:17;;;;;;;6.10;0.70;;;18.00;99.90;;;;;;4197847;28;20248;-93
2022/09/19 17:16:19;;;;;;;9.48;1.00;;;18.10;99.90;;;;;;4181574;28;20168;-91
2022/09/19 17:18:20;;;;;;;4.60;0.75;;;18.00;99.90;;;;;;4198074;28;20198;-92
2022/09/19 17:20:21;;;;;;;6.40;0.90;;;18.10;99.90;;;;;;4181440;28;20669;-90
2022/09/19 17:22:21;;;;;;;8.77;0.95;;;18.10;99.90;;;;;;4197955;28;20163;-94
2022/09/19 17:24:22;;;;;;;9.80;1.00;;;18.00;99.90;;;;;;4181363;28;20183;-92
2022/09/19 17:26:23;;;;;;;9.43;1.10;;;18.20;99.90;;;;;;4181474;28;20163;-92
2022/09/19 17:28:27;;;;;;;9.50;1.13;;;17.90;99.90;;;;;;4198025;28;20198;-92
2022/09/19 17:30:27;;;;;;;5.07;0.80;;;17.50;99.90;;;;;;4181282;28;20730;-92
2022/09/19 17:32:28;;;;;;;4.05;0.80;;;17.50;99.90;;;;;;4181247;28;20175;-92
2022/09/19 17:34:28;;;;;;;4.35;0.75;;;17.60;99.90;;;;;;4181346;28;20233;-92
2022/09/19 17:36:29;;;;;;;6.90;1.02;;;17.60;99.90;;;;;;4181455;28;20196;-93
2022/09/19 17:38:32;;;;;;;7.82;1.08;;;17.60;99.90;;;;;;4197556;28;20216;-93
2022/09/19 17:40:35;;;;;;;6.68;0.98;;;17.40;99.90;;;;;;4181416;28;20218;-93
2022/09/19 17:42:36;;;;;;;6.72;1.10;;;17.30;99.90;;;;;;4181248;28;20176;-92
2022/09/19 17:44:39;;;;;;;7.78;1.20;;;17.20;99.90;;;;;;4197505;28;20273;-93
2022/09/19 17:46:42;;;;;;;10.88;1.00;;;17.20;99.90;;;;;;4181307;28;20655;-92
2022/09/19 17:48:43;;;;;;;9.75;1.08;;;17.10;99.90;;;;;;4181165;28;20187;-91
2022/09/19 17:50:44;;;;;;;6.18;0.90;;;17.20;99.90;;;;;;4181160;28;20182;-92
2022/09/19 17:52:45;;;;;;;6.30;0.85;;;17.10;99.90;;;;;;4181286;28;20527;-92
2022/09/19 17:54:46;;;;;;;12.15;1.17;;;17.20;99.90;;;;;;4180816;28;20301;-92
2022/09/19 17:56:46;;;;;;;7.70;1.10;;;16.90;99.90;;;;;;4197526;28;20635;-94
2022/09/19 17:58:50;;;;;;;6.25;1.10;;;16.80;99.90;;;;;;4180884;28;20188;-93
2022/09/19 18:03:16;;;;;;;4.57;0.68;;;17.00;99.90;;;;;;4181121;28;20178;-93
2022/09/19 18:03:19;;;;;;;9.52;0.95;;;17.00;99.90;;;;;;4197571;28;20597;-92
2022/09/19 18:05:22;;;;;;;4.70;0.90;;;16.80;99.90;;;;;;4180930;28;20649;-91
2022/09/19 18:07:23;;;;;;;7.68;0.90;;;16.80;99.90;;;;;;4184163;28;20734;-94
2022/09/19 18:09:24;;;;;;;4.47;1.00;;;16.90;99.90;;;;;;4184444;28;20752;-90
2022/09/19 18:11:27;;;;;;;7.10;1.00;;;17.00;99.90;;;;;;4184526;28;20164;-93
2022/09/19 18:13:36;;;;;;;7.45;1.48;;;17.00;99.90;;;;;;4184552;28;20246;-90
2022/09/19 18:15:37;;;;;;;5.13;0.98;;;17.00;99.90;;;;;;4200707;28;20280;-93
2022/09/19 18:17:38;;;;;;;13.15;1.00;;;17.10;99.90;;;;;;4200661;28;20186;-93
2022/09/19 18:19:40;;;;;;;8.45;1.40;;;17.00;99.90;;;;;;4200417;28;20202;-91
2022/09/19 18:21:41;;;;;;;6.78;1.02;;;17.00;99.90;;;;;;4200608;28;20177;-92
2022/09/19 18:23:45;;;;;;;6.57;1.52;;;16.90;99.90;;;;;;4184030;28;20663;-92
2022/09/19 18:25:45;;;;;;;8.48;1.05;;;17.10;99.90;;;;;;4184187;28;20167;-90
2022/09/19 18:27:47;;;;;;;7.40;1.40;;;17.40;99.90;;;;;;4183943;28;20183;-91
2022/09/19 18:29:48;;;;;;;10.55;1.20;;;17.00;99.90;;;;;;4183872;28;20214;-92
2022/09/19 18:31:49;;;;;;;9.43;1.80;;;16.80;99.90;;;;;;4200453;28;20179;-90
2022/09/19 18:33:50;;;;;;;6.28;1.35;;;16.60;99.90;;;;;;4183764;28;20164;-92
2022/09/19 18:35:52;;;;;;;11.05;1.75;;;16.20;99.90;;;;;;4183831;28;20228;-92
2022/09/19 18:37:53;;;;;;;8.35;1.80;;;16.00;99.90;;;;;;4183745;28;20176;-91
2022/09/19 18:39:53;;;;;;;7.78;1.55;;;15.80;99.90;;;;;;4183824;28;20260;-91
2022/09/19 18:41:54;;;;;;;5.03;1.20;;;15.60;99.90;;;;;;4183921;28;20574;-90
2022/09/19 18:43:56;;;;;;;5.32;1.35;;;15.40;99.90;;;;;;4200265;28;20245;-92
2022/09/19 18:46:10;;;;;;;8.50;1.17;;;15.40;99.90;;;;;;4184130;28;20164;-91
2022/09/19 18:48:11;;;;;;;6.07;1.45;;;15.50;99.90;;;;;;4185090;28;20175;-92
2022/09/19 18:50:12;;;;;;;8.98;2.15;;;15.40;99.90;;;;;;4202637;28;20243;-92
2022/09/19 18:52:12;;;;;;;6.60;1.60;;;15.50;99.90;;;;;;4212338;28;20206;-92
2022/09/19 18:54:13;;;;;;;14.57;3.15;;;15.50;99.90;;;;;;4201241;28;20223;-92
2022/09/19 18:56:15;;;;;;;8.68;2.17;;;15.60;99.90;;;;;;4184513;28;20265;-92
2022/09/19 18:58:15;;;;;;;20.77;12.43;;;15.60;99.90;;;;;;4200560;28;20171;-92
2022/09/19 19:00:16;;;;;;;32.67;19.50;;;15.60;99.90;;;;;;4200731;28;20777;-93
2022/09/19 19:02:17;;;;;;;31.10;18.65;;;15.70;99.90;;;;;;4184057;28;20213;-91
2022/09/19 19:04:18;;;;;;;10.80;3.13;;;15.70;99.90;;;;;;4183950;28;20170;-90
2022/09/19 19:06:19;;;;;;;10.73;2.55;;;15.70;99.90;;;;;;4183835;28;20249;-93
2022/09/19 19:08:20;;;;;;;11.68;5.25;;;15.70;99.90;;;;;;4183452;28;20645;-90
2022/09/19 19:10:20;;;;;;;14.57;5.28;;;15.70;99.90;;;;;;4183428;28;20176;-90
2022/09/19 19:12:21;;;;;;;7.25;2.50;;;15.70;99.90;;;;;;4183256;28;20204;-90
2022/09/19 19:14:23;;;;;;;5.40;1.25;;;15.70;99.90;;;;;;4183104;28;20211;-93
2022/09/19 19:16:24;;;;;;;5.60;1.42;;;15.70;99.90;;;;;;4182941;28;20241;-93
2022/09/19 19:18:25;;;;;;;4.32;1.10;;;15.70;99.90;;;;;;4183165;28;20192;-94
2022/09/19 19:20:25;;;;;;;9.02;1.10;;;15.80;99.90;;;;;;4183293;28;20232;-93
2022/09/19 19:22:26;;;;;;;6.20;1.70;;;15.80;99.90;;;;;;4183149;28;20251;-92
2022/09/19 19:24:27;;;;;;;10.50;1.90;;;15.80;99.90;;;;;;4183088;28;20179;-92
2022/09/19 19:26:30;;;;;;;5.95;1.50;;;15.80;99.90;;;;;;4199741;28;20234;-92
2022/09/19 19:28:30;;;;;;;9.27;1.58;;;15.80;99.90;;;;;;4199726;28;20247;-93
2022/09/19 19:30:31;;;;;;;9.18;1.50;;;15.70;99.90;;;;;;4183087;28;20223;-93
2022/09/19 19:32:32;;;;;;;7.70;1.70;;;15.70;99.90;;;;;;4199596;28;20812;-92
2022/09/19 19:34:33;;;;;;;13.02;1.60;;;15.70;99.90;;;;;;4182800;28;20277;-93
2022/09/19 19:36:35;;;;;;;10.07;1.70;;;15.50;99.90;;;;;;4183133;28;20179;-93
2022/09/19 19:38:41;;;;;;;7.15;1.65;;;15.50;99.90;;;;;;4182778;28;20286;-92
2022/09/19 19:40:42;;;;;;;5.82;1.45;;;15.60;99.90;;;;;;4183134;28;20174;-93
2022/09/19 19:42:42;;;;;;;12.23;1.75;;;16.30;99.90;;;;;;4183056;28;20167;-93
2022/09/19 19:44:43;;;;;;;7.07;1.35;;;16.60;99.90;;;;;;4182916;28;20270;-89
2022/09/19 19:46:44;;;;;;;7.88;1.13;;;15.90;99.90;;;;;;4199181;28;20179;-88
2022/09/19 19:48:48;;;;;;;4.53;1.00;;;15.40;99.90;;;;;;4199199;28;20240;-90
2022/09/19 19:50:56;;;;;;;7.35;1.00;;;14.60;99.90;;;;;;4182879;28;20171;-92
2022/09/19 19:52:57;;;;;;;5.43;0.80;;;14.30;99.90;;;;;;4182598;28;20167;-91
2022/09/19 19:54:57;;;;;;;8.93;1.02;;;14.20;99.90;;;;;;4198956;28;20228;-90
2022/09/19 19:56:58;;;;;;;5.40;1.00;;;14.10;99.90;;;;;;4182520;28;20176;-92
2022/09/19 19:58:59;;;;;;;4.40;0.95;;;13.90;99.90;;;;;;4182364;28;20587;-89
2022/09/19 20:01:02;;;;;;;4.15;0.73;;;13.90;99.90;;;;;;4182557;28;20247;-92
2022/09/19 20:03:03;;;;;;;2.67;0.75;;;14.00;99.90;;;;;;4199126;28;20167;-91
2022/09/19 20:05:05;;;;;;;4.25;0.70;;;14.00;99.90;;;;;;4182651;28;20176;-91
2022/09/19 20:07:05;;;;;;;8.27;1.23;;;14.20;99.90;;;;;;4199396;28;20627;-91
2022/09/19 20:09:10;;;;;;;5.43;0.98;;;14.20;99.90;;;;;;4199315;28;20203;-92
2022/09/19 20:11:11;;;;;;;4.85;0.93;;;14.00;99.90;;;;;;4182799;28;20202;-90
2022/09/19 20:13:12;;;;;;;5.00;0.90;;;13.90;99.90;;;;;;4182661;28;20555;-91
2022/09/19 20:15:14;;;;;;;26.15;1.23;;;13.90;99.90;;;;;;4182356;28;20226;-91
2022/09/19 20:17:14;;;;;;;6.47;1.23;;;13.80;99.90;;;;;;4182475;28;20164;-92
2022/09/19 20:19:16;;;;;;;11.93;1.40;;;14.00;99.90;;;;;;4198633;28;20203;-91
2022/09/19 20:21:22;;;;;;;13.25;1.25;;;14.00;99.90;;;;;;4182309;28;20171;-91
2022/09/19 20:23:23;;;;;;;4.75;1.35;;;14.00;99.90;;;;;;4182260;28;20644;-89
2022/09/19 20:25:26;;;;;;;4.50;1.10;;;14.10;99.90;;;;;;4182190;28;20172;-91
2022/09/19 20:27:30;;;;;;;12.65;3.25;;;14.10;99.90;;;;;;4198810;28;20182;-90
2022/09/19 20:29:30;;;;;;;6.70;1.73;;;14.00;99.90;;;;;;4181320;28;20295;-91
2022/09/19 20:31:34;;;;;;;7.20;1.10;;;14.00;99.90;;;;;;4198640;28;20178;-92
2022/09/19 20:33:35;;;;;;;3.80;1.20;;;13.80;99.90;;;;;;4182118;28;20171;-92
2022/09/19 20:35:35;;;;;;;9.60;1.30;;;13.80;99.90;;;;;;4181840;28;20730;-90
2022/09/19 20:37:36;;;;;;;7.60;1.30;;;13.90;99.90;;;;;;4181893;28;20230;-91
2022/09/19 20:39:37;;;;;;;7.72;1.10;;;13.80;99.90;;;;;;4198389;28;20190;-92
2022/09/19 20:41:42;;;;;;;12.00;1.30;;;13.90;99.90;;;;;;4198394;28;20178;-92
2022/09/19 20:43:43;;;;;;;7.88;1.17;;;13.90;99.90;;;;;;4182020;28;20183;-90
2022/09/19 20:45:56;;;;;;;6.88;1.20;;;13.90;99.90;;;;;;4182011;28;20225;-91
2022/09/19 20:47:56;;;;;;;6.60;1.20;;;14.00;99.90;;;;;;4181830;28;20172;-92
2022/09/19 20:49:57;;;;;;;10.48;1.20;;;14.00;99.90;;;;;;4182226;28;20286;-92
2022/09/19 20:52:00;;;;;;;8.05;1.45;;;14.00;99.90;;;;;;4181817;28;20163;-92
2022/09/19 20:54:06;;;;;;;7.03;1.00;;;14.10;99.90;;;;;;4198195;28;20175;-91
2022/09/19 20:56:16;;;;;;;7.97;1.65;;;14.10;99.90;;;;;;4181621;28;20179;-91
2022/09/19 20:58:16;;;;;;;6.72;1.77;;;14.10;99.90;;;;;;4181475;28;20229;-91
2022/09/19 21:00:17;;;;;;;8.95;1.70;;;14.20;99.90;;;;;;4181651;28;20191;-91
2022/09/19 21:02:18;;;;;;;6.45;1.58;;;14.30;99.90;;;;;;4181480;28;20207;-91
2022/09/19 21:04:19;;;;;;;7.70;2.95;;;14.40;99.90;;;;;;4198116;28;20167;-92
2022/09/19 21:06:23;;;;;;;8.05;2.17;;;14.50;99.90;;;;;;4198438;28;20258;-90
2022/09/19 21:08:26;;;;;;;4.13;1.42;;;14.50;99.90;;;;;;4181330;28;20753;-91
2022/09/19 21:10:30;;;;;;;5.85;1.17;;;14.40;99.90;;;;;;4181840;28;20258;-91
2022/09/19 21:12:30;;;;;;;3.10;0.85;;;14.70;99.90;;;;;;4181792;28;20731;-91